sensor_id;sensor_type;location;lat;lon;timestamp;P1;durP1;ratioP1;P2;durP2;ratioP2
63320;SDS011;49449;48.800;9.534;2022-07-10T00:01:16;4.28;;;3.13;;
63320;SDS011;49449;48.800;9.534;2022-07-10T00:03:43;3.30;;;3.00;;
63320;SDS011;49449;48.800;9.534;2022-07-10T00:06:11;2.58;;;2.38;;
63320;SDS011;49449;48.800;9.534;2022-07-10T00:08:39;3.85;;;2.83;;
63320;SDS011;49449;48.800;9.534;2022-07-10T00:11:08;3.65;;;3.10;;
63320;SDS011;49449;48.800;9.534;2022-07-10T00:13:38;2.80;;;2.60;;
63320;SDS011;49449;48.800;9.534;2022-07-10T00:16:06;3.45;;;3.15;;
63320;SDS011;49449;48.800;9.534;2022-07-10T00:18:34;3.03;;;2.83;;
63320;SDS011;49449;48.800;9.534;2022-07-10T00:21:02;3.80;;;3.35;;
63320;SDS011;49449;48.800;9.534;2022-07-10T00:23:29;3.28;;;2.83;;
63320;SDS011;49449;48.800;9.534;2022-07-10T00:25:57;2.95;;;2.70;;
63320;SDS011;49449;48.800;9.534;2022-07-10T00:28:25;3.00;;;2.72;;
63320;SDS011;49449;48.800;9.534;2022-07-10T00:30:54;2.78;;;2.58;;
63320;SDS011;49449;48.800;9.534;2022-07-10T00:33:22;3.75;;;3.35;;
63320;SDS011;49449;48.800;9.534;2022-07-10T00:35:50;3.10;;;2.90;;
63320;SDS011;49449;48.800;9.534;2022-07-10T00:38:18;3.10;;;2.80;;
63320;SDS011;49449;48.800;9.534;2022-07-10T00:40:45;4.40;;;3.35;;
63320;SDS011;49449;48.800;9.534;2022-07-10T00:43:13;3.33;;;3.13;;
63320;SDS011;49449;48.800;9.534;2022-07-10T00:45:41;3.78;;;3.00;;
63320;SDS011;49449;48.800;9.534;2022-07-10T00:48:10;3.58;;;3.28;;
63320;SDS011;49449;48.800;9.534;2022-07-10T00:50:38;3.22;;;3.00;;
63320;SDS011;49449;48.800;9.534;2022-07-10T00:53:07;3.65;;;3.33;;
63320;SDS011;49449;48.800;9.534;2022-07-10T00:55:35;3.20;;;3.00;;
63320;SDS011;49449;48.800;9.534;2022-07-10T00:58:04;3.50;;;3.03;;
63320;SDS011;49449;48.800;9.534;2022-07-10T01:00:34;3.15;;;2.95;;
63320;SDS011;49449;48.800;9.534;2022-07-10T01:03:03;3.40;;;3.20;;
63320;SDS011;49449;48.800;9.534;2022-07-10T01:05:33;4.30;;;3.00;;
63320;SDS011;49449;48.800;9.534;2022-07-10T01:08:01;3.50;;;3.20;;
63320;SDS011;49449;48.800;9.534;2022-07-10T01:10:28;2.92;;;2.72;;
63320;SDS011;49449;48.800;9.534;2022-07-10T01:12:57;3.40;;;3.10;;
63320;SDS011;49449;48.800;9.534;2022-07-10T01:15:24;3.38;;;3.05;;
63320;SDS011;49449;48.800;9.534;2022-07-10T01:17:53;3.17;;;2.97;;
63320;SDS011;49449;48.800;9.534;2022-07-10T01:20:28;3.60;;;3.30;;
63320;SDS011;49449;48.800;9.534;2022-07-10T01:22:58;3.38;;;3.17;;
63320;SDS011;49449;48.800;9.534;2022-07-10T01:25:26;3.50;;;3.15;;
63320;SDS011;49449;48.800;9.534;2022-07-10T01:27:54;3.08;;;2.88;;
63320;SDS011;49449;48.800;9.534;2022-07-10T01:30:22;2.88;;;2.67;;
63320;SDS011;49449;48.800;9.534;2022-07-10T01:32:51;3.67;;;3.38;;
63320;SDS011;49449;48.800;9.534;2022-07-10T01:35:19;4.95;;;3.65;;
63320;SDS011;49449;48.800;9.534;2022-07-10T01:37:47;4.22;;;3.83;;
63320;SDS011;49449;48.800;9.534;2022-07-10T01:40:16;3.63;;;3.33;;
63320;SDS011;49449;48.800;9.534;2022-07-10T01:42:44;3.63;;;3.20;;
63320;SDS011;49449;48.800;9.534;2022-07-10T01:45:12;4.07;;;3.50;;
63320;SDS011;49449;48.800;9.534;2022-07-10T01:47:40;4.10;;;3.47;;
63320;SDS011;49449;48.800;9.534;2022-07-10T01:50:09;3.88;;;3.58;;
63320;SDS011;49449;48.800;9.534;2022-07-10T01:52:37;3.97;;;3.67;;
63320;SDS011;49449;48.800;9.534;2022-07-10T01:55:06;4.00;;;3.42;;
63320;SDS011;49449;48.800;9.534;2022-07-10T01:57:35;4.43;;;3.55;;
63320;SDS011;49449;48.800;9.534;2022-07-10T02:00:04;3.70;;;3.40;;
63320;SDS011;49449;48.800;9.534;2022-07-10T02:02:32;5.18;;;4.10;;
63320;SDS011;49449;48.800;9.534;2022-07-10T02:05:00;3.90;;;3.60;;
63320;SDS011;49449;48.800;9.534;2022-07-10T02:07:27;3.97;;;3.67;;
63320;SDS011;49449;48.800;9.534;2022-07-10T02:09:55;4.75;;;4.10;;
63320;SDS011;49449;48.800;9.534;2022-07-10T02:12:23;3.10;;;2.90;;
63320;SDS011;49449;48.800;9.534;2022-07-10T02:14:52;4.22;;;3.67;;
63320;SDS011;49449;48.800;9.534;2022-07-10T02:17:22;3.42;;;3.17;;
63320;SDS011;49449;48.800;9.534;2022-07-10T02:19:50;4.00;;;3.45;;
63320;SDS011;49449;48.800;9.534;2022-07-10T02:22:18;3.50;;;3.30;;
63320;SDS011;49449;48.800;9.534;2022-07-10T02:24:46;3.90;;;3.60;;
63320;SDS011;49449;48.800;9.534;2022-07-10T02:27:14;3.88;;;3.30;;
63320;SDS011;49449;48.800;9.534;2022-07-10T02:29:41;4.68;;;4.28;;
63320;SDS011;49449;48.800;9.534;2022-07-10T02:32:10;4.00;;;3.60;;
63320;SDS011;49449;48.800;9.534;2022-07-10T02:34:38;3.97;;;3.67;;
63320;SDS011;49449;48.800;9.534;2022-07-10T02:37:06;3.72;;;3.40;;
63320;SDS011;49449;48.800;9.534;2022-07-10T02:39:34;4.40;;;4.00;;
63320;SDS011;49449;48.800;9.534;2022-07-10T02:42:02;3.58;;;3.28;;
63320;SDS011;49449;48.800;9.534;2022-07-10T02:44:30;4.47;;;3.85;;
63320;SDS011;49449;48.800;9.534;2022-07-10T02:46:58;4.18;;;3.47;;
63320;SDS011;49449;48.800;9.534;2022-07-10T02:49:28;3.92;;;3.63;;
63320;SDS011;49449;48.800;9.534;2022-07-10T02:51:55;3.80;;;3.47;;
63320;SDS011;49449;48.800;9.534;2022-07-10T02:54:24;4.00;;;3.70;;
63320;SDS011;49449;48.800;9.534;2022-07-10T02:56:52;4.00;;;3.70;;
63320;SDS011;49449;48.800;9.534;2022-07-10T02:59:20;5.18;;;3.70;;
63320;SDS011;49449;48.800;9.534;2022-07-10T03:01:47;4.00;;;3.70;;
63320;SDS011;49449;48.800;9.534;2022-07-10T03:04:15;4.57;;;4.18;;
63320;SDS011;49449;48.800;9.534;2022-07-10T03:06:44;3.88;;;3.30;;
63320;SDS011;49449;48.800;9.534;2022-07-10T03:09:12;4.65;;;4.25;;
63320;SDS011;49449;48.800;9.534;2022-07-10T03:11:40;4.78;;;3.72;;
63320;SDS011;49449;48.800;9.534;2022-07-10T03:14:08;4.18;;;3.83;;
63320;SDS011;49449;48.800;9.534;2022-07-10T03:16:36;3.70;;;3.40;;
63320;SDS011;49449;48.800;9.534;2022-07-10T03:19:03;4.70;;;4.30;;
63320;SDS011;49449;48.800;9.534;2022-07-10T03:21:31;3.60;;;3.30;;
63320;SDS011;49449;48.800;9.534;2022-07-10T03:24:00;4.10;;;3.70;;
63320;SDS011;49449;48.800;9.534;2022-07-10T03:26:28;3.72;;;3.35;;
63320;SDS011;49449;48.800;9.534;2022-07-10T03:28:56;4.03;;;3.25;;
63320;SDS011;49449;48.800;9.534;2022-07-10T03:31:24;3.80;;;3.50;;
63320;SDS011;49449;48.800;9.534;2022-07-10T03:33:52;4.07;;;3.67;;
63320;SDS011;49449;48.800;9.534;2022-07-10T03:36:19;4.07;;;3.72;;
63320;SDS011;49449;48.800;9.534;2022-07-10T03:38:47;4.30;;;3.90;;
63320;SDS011;49449;48.800;9.534;2022-07-10T03:41:16;4.88;;;4.47;;
63320;SDS011;49449;48.800;9.534;2022-07-10T03:43:44;4.00;;;3.65;;
63320;SDS011;49449;48.800;9.534;2022-07-10T03:46:12;4.53;;;4.13;;
63320;SDS011;49449;48.800;9.534;2022-07-10T03:48:40;3.58;;;3.30;;
63320;SDS011;49449;48.800;9.534;2022-07-10T03:51:07;4.13;;;3.58;;
63320;SDS011;49449;48.800;9.534;2022-07-10T03:53:35;4.00;;;3.67;;
63320;SDS011;49449;48.800;9.534;2022-07-10T03:56:04;3.88;;;3.50;;
63320;SDS011;49449;48.800;9.534;2022-07-10T03:58:33;4.13;;;3.67;;
63320;SDS011;49449;48.800;9.534;2022-07-10T04:01:00;4.80;;;4.40;;
63320;SDS011;49449;48.800;9.534;2022-07-10T04:03:28;4.40;;;4.00;;
63320;SDS011;49449;48.800;9.534;2022-07-10T04:05:56;6.85;;;4.93;;
63320;SDS011;49449;48.800;9.534;2022-07-10T04:08:23;4.40;;;4.03;;
63320;SDS011;49449;48.800;9.534;2022-07-10T04:10:51;4.82;;;4.25;;
63320;SDS011;49449;48.800;9.534;2022-07-10T04:13:19;3.92;;;3.63;;
63320;SDS011;49449;48.800;9.534;2022-07-10T04:15:48;4.72;;;4.28;;
63320;SDS011;49449;48.800;9.534;2022-07-10T04:18:16;4.85;;;3.70;;
63320;SDS011;49449;48.800;9.534;2022-07-10T04:20:44;5.03;;;4.63;;
63320;SDS011;49449;48.800;9.534;2022-07-10T04:23:11;4.40;;;3.55;;
63320;SDS011;49449;48.800;9.534;2022-07-10T04:25:39;5.32;;;3.80;;
63320;SDS011;49449;48.800;9.534;2022-07-10T04:28:07;4.53;;;4.13;;
63320;SDS011;49449;48.800;9.534;2022-07-10T04:30:35;4.53;;;4.07;;
63320;SDS011;49449;48.800;9.534;2022-07-10T04:33:04;4.30;;;4.00;;
63320;SDS011;49449;48.800;9.534;2022-07-10T04:35:31;4.28;;;3.88;;
63320;SDS011;49449;48.800;9.534;2022-07-10T04:37:59;4.70;;;4.30;;
63320;SDS011;49449;48.800;9.534;2022-07-10T04:40:27;4.53;;;4.13;;
63320;SDS011;49449;48.800;9.534;2022-07-10T04:42:55;4.05;;;3.75;;
63320;SDS011;49449;48.800;9.534;2022-07-10T04:45:23;4.93;;;4.22;;
63320;SDS011;49449;48.800;9.534;2022-07-10T04:47:51;5.35;;;3.80;;
63320;SDS011;49449;48.800;9.534;2022-07-10T04:50:20;4.00;;;3.70;;
63320;SDS011;49449;48.800;9.534;2022-07-10T04:52:48;4.63;;;3.95;;
63320;SDS011;49449;48.800;9.534;2022-07-10T04:55:16;4.63;;;4.05;;
63320;SDS011;49449;48.800;9.534;2022-07-10T04:57:44;4.65;;;4.22;;
63320;SDS011;49449;48.800;9.534;2022-07-10T05:00:12;4.88;;;4.20;;
63320;SDS011;49449;48.800;9.534;2022-07-10T05:02:41;4.13;;;3.83;;
63320;SDS011;49449;48.800;9.534;2022-07-10T05:05:09;4.88;;;4.15;;
63320;SDS011;49449;48.800;9.534;2022-07-10T05:07:38;6.07;;;3.90;;
63320;SDS011;49449;48.800;9.534;2022-07-10T05:10:06;4.45;;;3.67;;
63320;SDS011;49449;48.800;9.534;2022-07-10T05:12:34;4.13;;;3.83;;
63320;SDS011;49449;48.800;9.534;2022-07-10T05:15:02;4.05;;;3.65;;
63320;SDS011;49449;48.800;9.534;2022-07-10T05:17:30;4.35;;;3.15;;
63320;SDS011;49449;48.800;9.534;2022-07-10T05:19:58;5.13;;;3.33;;
63320;SDS011;49449;48.800;9.534;2022-07-10T05:22:26;3.53;;;3.22;;
63320;SDS011;49449;48.800;9.534;2022-07-10T05:24:57;3.65;;;2.90;;
63320;SDS011;49449;48.800;9.534;2022-07-10T05:27:25;6.07;;;3.05;;
63320;SDS011;49449;48.800;9.534;2022-07-10T05:29:53;3.47;;;3.00;;
63320;SDS011;49449;48.800;9.534;2022-07-10T05:32:21;4.03;;;3.45;;
63320;SDS011;49449;48.800;9.534;2022-07-10T05:34:51;3.40;;;2.72;;
63320;SDS011;49449;48.800;9.534;2022-07-10T05:37:19;2.70;;;2.45;;
63320;SDS011;49449;48.800;9.534;2022-07-10T05:39:46;3.17;;;2.92;;
63320;SDS011;49449;48.800;9.534;2022-07-10T05:42:15;2.53;;;2.17;;
63320;SDS011;49449;48.800;9.534;2022-07-10T05:44:43;2.72;;;2.17;;
63320;SDS011;49449;48.800;9.534;2022-07-10T05:47:11;2.67;;;2.45;;
63320;SDS011;49449;48.800;9.534;2022-07-10T05:49:39;2.63;;;2.35;;
63320;SDS011;49449;48.800;9.534;2022-07-10T05:52:06;2.92;;;2.05;;
63320;SDS011;49449;48.800;9.534;2022-07-10T05:54:34;3.80;;;2.38;;
63320;SDS011;49449;48.800;9.534;2022-07-10T05:57:02;2.97;;;2.58;;
63320;SDS011;49449;48.800;9.534;2022-07-10T05:59:34;2.67;;;2.45;;
63320;SDS011;49449;48.800;9.534;2022-07-10T06:04:30;3.40;;;3.17;;
63320;SDS011;49449;48.800;9.534;2022-07-10T06:06:58;2.22;;;2.13;;
63320;SDS011;49449;48.800;9.534;2022-07-10T06:09:26;2.72;;;2.47;;
63320;SDS011;49449;48.800;9.534;2022-07-10T06:11:53;3.80;;;2.38;;
63320;SDS011;49449;48.800;9.534;2022-07-10T06:14:21;2.67;;;1.95;;
63320;SDS011;49449;48.800;9.534;2022-07-10T06:16:50;2.30;;;2.10;;
63320;SDS011;49449;48.800;9.534;2022-07-10T06:19:18;2.30;;;2.03;;
63320;SDS011;49449;48.800;9.534;2022-07-10T06:21:46;2.53;;;2.30;;
63320;SDS011;49449;48.800;9.534;2022-07-10T06:24:14;2.92;;;2.70;;
63320;SDS011;49449;48.800;9.534;2022-07-10T06:26:41;3.75;;;2.53;;
63320;SDS011;49449;48.800;9.534;2022-07-10T06:29:09;3.25;;;2.38;;
63320;SDS011;49449;48.800;9.534;2022-07-10T06:31:37;4.00;;;2.50;;
63320;SDS011;49449;48.800;9.534;2022-07-10T06:34:06;3.63;;;2.53;;
63320;SDS011;49449;48.800;9.534;2022-07-10T06:36:34;4.55;;;2.80;;
63320;SDS011;49449;48.800;9.534;2022-07-10T06:39:01;3.03;;;2.33;;
63320;SDS011;49449;48.800;9.534;2022-07-10T06:41:29;2.83;;;2.60;;
63320;SDS011;49449;48.800;9.534;2022-07-10T06:43:57;2.80;;;2.47;;
63320;SDS011;49449;48.800;9.534;2022-07-10T06:46:27;2.80;;;2.20;;
63320;SDS011;49449;48.800;9.534;2022-07-10T06:48:54;3.15;;;2.95;;
63320;SDS011;49449;48.800;9.534;2022-07-10T06:51:23;3.90;;;2.30;;
63320;SDS011;49449;48.800;9.534;2022-07-10T06:53:50;3.67;;;2.65;;
63320;SDS011;49449;48.800;9.534;2022-07-10T06:56:18;3.08;;;2.28;;
63320;SDS011;49449;48.800;9.534;2022-07-10T06:58:46;4.97;;;2.58;;
63320;SDS011;49449;48.800;9.534;2022-07-10T07:01:17;1.98;;;1.85;;
63320;SDS011;49449;48.800;9.534;2022-07-10T07:03:44;2.67;;;2.05;;
63320;SDS011;49449;48.800;9.534;2022-07-10T07:06:12;2.35;;;1.70;;
63320;SDS011;49449;48.800;9.534;2022-07-10T07:08:44;3.67;;;1.90;;
63320;SDS011;49449;48.800;9.534;2022-07-10T07:11:11;1.23;;;1.23;;
63320;SDS011;49449;48.800;9.534;2022-07-10T07:13:39;2.60;;;1.67;;
63320;SDS011;49449;48.800;9.534;2022-07-10T07:16:07;3.13;;;1.90;;
63320;SDS011;49449;48.800;9.534;2022-07-10T07:18:36;2.20;;;1.55;;
63320;SDS011;49449;48.800;9.534;2022-07-10T07:21:13;2.45;;;1.90;;
63320;SDS011;49449;48.800;9.534;2022-07-10T07:24:00;2.10;;;1.60;;
63320;SDS011;49449;48.800;9.534;2022-07-10T07:26:28;1.88;;;1.48;;
63320;SDS011;49449;48.800;9.534;2022-07-10T07:28:56;3.38;;;1.50;;
63320;SDS011;49449;48.800;9.534;2022-07-10T07:31:24;1.80;;;1.70;;
63320;SDS011;49449;48.800;9.534;2022-07-10T07:33:52;2.83;;;1.65;;
63320;SDS011;49449;48.800;9.534;2022-07-10T07:36:19;3.38;;;1.75;;
63320;SDS011;49449;48.800;9.534;2022-07-10T07:38:47;2.55;;;1.50;;
63320;SDS011;49449;48.800;9.534;2022-07-10T07:41:16;1.98;;;1.80;;
63320;SDS011;49449;48.800;9.534;2022-07-10T07:43:44;2.03;;;1.58;;
63320;SDS011;49449;48.800;9.534;2022-07-10T07:46:12;1.48;;;1.33;;
63320;SDS011;49449;48.800;9.534;2022-07-10T07:48:40;3.60;;;1.52;;
63320;SDS011;49449;48.800;9.534;2022-07-10T07:51:08;3.65;;;1.65;;
63320;SDS011;49449;48.800;9.534;2022-07-10T07:53:36;2.70;;;1.60;;
63320;SDS011;49449;48.800;9.534;2022-07-10T07:56:04;2.88;;;1.58;;
63320;SDS011;49449;48.800;9.534;2022-07-10T07:58:33;1.58;;;1.45;;
63320;SDS011;49449;48.800;9.534;2022-07-10T08:01:01;2.78;;;2.08;;
63320;SDS011;49449;48.800;9.534;2022-07-10T08:03:29;2.17;;;1.50;;
63320;SDS011;49449;48.800;9.534;2022-07-10T08:06:15;1.70;;;1.50;;
63320;SDS011;49449;48.800;9.534;2022-07-10T08:08:42;1.90;;;1.58;;
63320;SDS011;49449;48.800;9.534;2022-07-10T08:11:10;2.95;;;1.50;;
63320;SDS011;49449;48.800;9.534;2022-07-10T08:13:39;1.30;;;1.30;;
63320;SDS011;49449;48.800;9.534;2022-07-10T08:18:36;2.00;;;1.90;;
63320;SDS011;49449;48.800;9.534;2022-07-10T08:21:05;2.60;;;1.63;;
63320;SDS011;49449;48.800;9.534;2022-07-10T08:23:32;2.30;;;1.77;;
63320;SDS011;49449;48.800;9.534;2022-07-10T08:26:00;2.92;;;1.45;;
63320;SDS011;49449;48.800;9.534;2022-07-10T08:28:28;2.60;;;1.50;;
63320;SDS011;49449;48.800;9.534;2022-07-10T08:30:57;2.28;;;2.10;;
63320;SDS011;49449;48.800;9.534;2022-07-10T08:33:25;6.30;;;4.28;;
63320;SDS011;49449;48.800;9.534;2022-07-10T08:35:53;5.88;;;4.03;;
63320;SDS011;49449;48.800;9.534;2022-07-10T08:38:35;4.40;;;4.00;;
63320;SDS011;49449;48.800;9.534;2022-07-10T08:41:04;3.83;;;2.50;;
63320;SDS011;49449;48.800;9.534;2022-07-10T08:43:33;1.88;;;1.77;;
63320;SDS011;49449;48.800;9.534;2022-07-10T08:46:03;2.67;;;1.95;;
63320;SDS011;49449;48.800;9.534;2022-07-10T08:48:32;3.00;;;1.65;;
63320;SDS011;49449;48.800;9.534;2022-07-10T08:51:02;2.35;;;1.30;;
63320;SDS011;49449;48.800;9.534;2022-07-10T08:53:34;1.98;;;1.20;;
63320;SDS011;49449;48.800;9.534;2022-07-10T08:56:02;2.58;;;1.30;;
63320;SDS011;49449;48.800;9.534;2022-07-10T08:58:32;2.40;;;1.35;;
63320;SDS011;49449;48.800;9.534;2022-07-10T09:01:03;2.60;;;1.58;;
63320;SDS011;49449;48.800;9.534;2022-07-10T09:03:31;1.58;;;1.30;;
63320;SDS011;49449;48.800;9.534;2022-07-10T09:05:59;2.85;;;1.35;;
63320;SDS011;49449;48.800;9.534;2022-07-10T09:08:28;2.83;;;1.83;;
63320;SDS011;49449;48.800;9.534;2022-07-10T09:11:13;1.90;;;1.50;;
63320;SDS011;49449;48.800;9.534;2022-07-10T09:13:48;2.35;;;1.52;;
63320;SDS011;49449;48.800;9.534;2022-07-10T09:16:25;2.80;;;1.50;;
63320;SDS011;49449;48.800;9.534;2022-07-10T09:18:54;3.08;;;1.85;;
63320;SDS011;49449;48.800;9.534;2022-07-10T09:21:23;3.50;;;1.67;;
63320;SDS011;49449;48.800;9.534;2022-07-10T09:23:54;2.60;;;1.60;;
63320;SDS011;49449;48.800;9.534;2022-07-10T09:26:26;3.10;;;1.30;;
63320;SDS011;49449;48.800;9.534;2022-07-10T09:29:04;3.15;;;1.35;;
63320;SDS011;49449;48.800;9.534;2022-07-10T09:34:18;1.90;;;1.50;;
63320;SDS011;49449;48.800;9.534;2022-07-10T09:37:16;1.70;;;1.60;;
63320;SDS011;49449;48.800;9.534;2022-07-10T09:39:55;2.58;;;1.90;;
63320;SDS011;49449;48.800;9.534;2022-07-10T09:42:28;1.45;;;1.23;;
63320;SDS011;49449;48.800;9.534;2022-07-10T09:45:16;1.80;;;1.40;;
63320;SDS011;49449;48.800;9.534;2022-07-10T09:47:54;4.47;;;1.40;;
63320;SDS011;49449;48.800;9.534;2022-07-10T09:50:24;2.88;;;1.23;;
63320;SDS011;49449;48.800;9.534;2022-07-10T09:52:54;1.77;;;1.42;;
63320;SDS011;49449;48.800;9.534;2022-07-10T09:55:24;2.53;;;1.67;;
63320;SDS011;49449;48.800;9.534;2022-07-10T09:57:54;2.05;;;1.50;;
63320;SDS011;49449;48.800;9.534;2022-07-10T10:00:24;2.88;;;1.95;;
63320;SDS011;49449;48.800;9.534;2022-07-10T10:02:58;2.22;;;1.23;;
63320;SDS011;49449;48.800;9.534;2022-07-10T10:05:30;2.40;;;1.45;;
63320;SDS011;49449;48.800;9.534;2022-07-10T10:08:04;2.78;;;1.40;;
63320;SDS011;49449;48.800;9.534;2022-07-10T10:10:38;1.65;;;1.25;;
63320;SDS011;49449;48.800;9.534;2022-07-10T10:13:10;2.08;;;1.27;;
63320;SDS011;49449;48.800;9.534;2022-07-10T10:15:43;2.63;;;1.30;;
63320;SDS011;49449;48.800;9.534;2022-07-10T10:18:15;1.88;;;1.48;;
63320;SDS011;49449;48.800;9.534;2022-07-10T10:20:45;2.83;;;1.55;;
63320;SDS011;49449;48.800;9.534;2022-07-10T10:23:13;1.25;;;1.20;;
63320;SDS011;49449;48.800;9.534;2022-07-10T10:25:43;1.77;;;1.30;;
63320;SDS011;49449;48.800;9.534;2022-07-10T10:28:12;1.30;;;1.20;;
63320;SDS011;49449;48.800;9.534;2022-07-10T10:30:43;1.67;;;1.40;;
63320;SDS011;49449;48.800;9.534;2022-07-10T10:36:14;3.05;;;1.25;;
63320;SDS011;49449;48.800;9.534;2022-07-10T10:39:11;1.63;;;1.52;;
63320;SDS011;49449;48.800;9.534;2022-07-10T10:41:44;1.40;;;1.27;;
63320;SDS011;49449;48.800;9.534;2022-07-10T10:44:25;1.35;;;1.20;;
63320;SDS011;49449;48.800;9.534;2022-07-10T10:52:32;2.38;;;1.27;;
63320;SDS011;49449;48.800;9.534;2022-07-10T10:55:03;4.00;;;1.48;;
63320;SDS011;49449;48.800;9.534;2022-07-10T10:57:36;1.27;;;1.17;;
63320;SDS011;49449;48.800;9.534;2022-07-10T11:00:06;1.27;;;1.17;;
63320;SDS011;49449;48.800;9.534;2022-07-10T11:02:36;1.10;;;0.90;;
63320;SDS011;49449;48.800;9.534;2022-07-10T11:08:09;2.05;;;1.10;;
63320;SDS011;49449;48.800;9.534;2022-07-10T11:10:39;2.65;;;1.40;;
63320;SDS011;49449;48.800;9.534;2022-07-10T11:13:11;1.67;;;1.20;;
63320;SDS011;49449;48.800;9.534;2022-07-10T11:15:40;2.30;;;1.70;;
63320;SDS011;49449;48.800;9.534;2022-07-10T11:18:10;3.60;;;1.30;;
63320;SDS011;49449;48.800;9.534;2022-07-10T11:20:39;2.88;;;1.48;;
63320;SDS011;49449;48.800;9.534;2022-07-10T11:26:10;5.00;;;1.40;;
63320;SDS011;49449;48.800;9.534;2022-07-10T11:28:50;1.60;;;1.08;;
63320;SDS011;49449;48.800;9.534;2022-07-10T11:31:20;2.30;;;1.10;;
63320;SDS011;49449;48.800;9.534;2022-07-10T11:33:49;1.52;;;0.98;;
63320;SDS011;49449;48.800;9.534;2022-07-10T11:36:20;1.25;;;0.90;;
63320;SDS011;49449;48.800;9.534;2022-07-10T11:38:55;1.80;;;1.10;;
63320;SDS011;49449;48.800;9.534;2022-07-10T11:41:24;2.50;;;1.00;;
63320;SDS011;49449;48.800;9.534;2022-07-10T11:43:53;2.63;;;1.30;;
63320;SDS011;49449;48.800;9.534;2022-07-10T11:46:24;1.58;;;1.40;;
63320;SDS011;49449;48.800;9.534;2022-07-10T11:48:53;1.90;;;1.23;;
63320;SDS011;49449;48.800;9.534;2022-07-10T11:51:25;1.85;;;1.13;;
63320;SDS011;49449;48.800;9.534;2022-07-10T11:53:55;1.98;;;0.95;;
63320;SDS011;49449;48.800;9.534;2022-07-10T11:58:53;2.72;;;2.17;;
63320;SDS011;49449;48.800;9.534;2022-07-10T12:01:22;3.15;;;2.90;;
63320;SDS011;49449;48.800;9.534;2022-07-10T12:03:53;1.60;;;1.45;;
63320;SDS011;49449;48.800;9.534;2022-07-10T12:06:26;1.42;;;1.25;;
63320;SDS011;49449;48.800;9.534;2022-07-10T12:08:55;1.60;;;1.02;;
63320;SDS011;49449;48.800;9.534;2022-07-10T12:11:22;1.20;;;1.10;;
63320;SDS011;49449;48.800;9.534;2022-07-10T12:13:51;1.60;;;1.00;;
63320;SDS011;49449;48.800;9.534;2022-07-10T12:16:20;1.48;;;1.30;;
63320;SDS011;49449;48.800;9.534;2022-07-10T12:18:49;2.88;;;1.10;;
63320;SDS011;49449;48.800;9.534;2022-07-10T12:21:18;1.27;;;1.00;;
63320;SDS011;49449;48.800;9.534;2022-07-10T12:23:47;1.15;;;1.00;;
63320;SDS011;49449;48.800;9.534;2022-07-10T12:26:16;1.40;;;1.30;;
63320;SDS011;49449;48.800;9.534;2022-07-10T12:28:48;2.53;;;1.00;;
63320;SDS011;49449;48.800;9.534;2022-07-10T12:31:20;1.30;;;1.02;;
63320;SDS011;49449;48.800;9.534;2022-07-10T12:33:52;2.28;;;1.15;;
63320;SDS011;49449;48.800;9.534;2022-07-10T12:36:21;1.48;;;1.10;;
63320;SDS011;49449;48.800;9.534;2022-07-10T12:38:54;1.52;;;0.95;;
63320;SDS011;49449;48.800;9.534;2022-07-10T12:41:24;2.20;;;1.17;;
63320;SDS011;49449;48.800;9.534;2022-07-10T12:43:53;1.23;;;1.10;;
63320;SDS011;49449;48.800;9.534;2022-07-10T12:46:22;1.52;;;1.23;;
63320;SDS011;49449;48.800;9.534;2022-07-10T12:49:06;1.77;;;1.25;;
63320;SDS011;49449;48.800;9.534;2022-07-10T12:51:42;2.97;;;1.30;;
63320;SDS011;49449;48.800;9.534;2022-07-10T12:54:32;1.73;;;1.45;;
63320;SDS011;49449;48.800;9.534;2022-07-10T12:57:01;2.78;;;1.30;;
63320;SDS011;49449;48.800;9.534;2022-07-10T12:59:32;2.25;;;0.98;;
63320;SDS011;49449;48.800;9.534;2022-07-10T13:02:13;3.10;;;1.40;;
63320;SDS011;49449;48.800;9.534;2022-07-10T13:04:51;2.65;;;1.30;;
63320;SDS011;49449;48.800;9.534;2022-07-10T13:07:20;1.83;;;1.10;;
63320;SDS011;49449;48.800;9.534;2022-07-10T13:09:59;1.20;;;1.10;;
63320;SDS011;49449;48.800;9.534;2022-07-10T13:12:29;1.63;;;1.00;;
63320;SDS011;49449;48.800;9.534;2022-07-10T13:14:57;2.92;;;1.20;;
63320;SDS011;49449;48.800;9.534;2022-07-10T13:17:25;2.88;;;1.20;;
63320;SDS011;49449;48.800;9.534;2022-07-10T13:19:52;1.30;;;1.08;;
63320;SDS011;49449;48.800;9.534;2022-07-10T13:22:21;1.48;;;0.93;;
63320;SDS011;49449;48.800;9.534;2022-07-10T13:24:49;1.50;;;1.00;;
63320;SDS011;49449;48.800;9.534;2022-07-10T13:27:18;1.92;;;1.42;;
63320;SDS011;49449;48.800;9.534;2022-07-10T13:29:46;1.73;;;1.25;;
63320;SDS011;49449;48.800;9.534;2022-07-10T13:32:14;1.88;;;1.20;;
63320;SDS011;49449;48.800;9.534;2022-07-10T13:34:42;2.63;;;1.25;;
63320;SDS011;49449;48.800;9.534;2022-07-10T13:37:10;2.13;;;1.13;;
63320;SDS011;49449;48.800;9.534;2022-07-10T13:39:39;2.53;;;1.05;;
63320;SDS011;49449;48.800;9.534;2022-07-10T13:42:07;1.98;;;0.93;;
63320;SDS011;49449;48.800;9.534;2022-07-10T13:44:37;0.90;;;0.77;;
63320;SDS011;49449;48.800;9.534;2022-07-10T13:47:04;1.48;;;1.38;;
63320;SDS011;49449;48.800;9.534;2022-07-10T13:49:33;1.52;;;1.17;;
63320;SDS011;49449;48.800;9.534;2022-07-10T13:52:01;1.50;;;1.08;;
63320;SDS011;49449;48.800;9.534;2022-07-10T13:54:28;1.30;;;1.17;;
63320;SDS011;49449;48.800;9.534;2022-07-10T13:56:56;2.60;;;0.93;;
63320;SDS011;49449;48.800;9.534;2022-07-10T13:59:24;2.95;;;1.48;;
63320;SDS011;49449;48.800;9.534;2022-07-10T14:01:53;1.13;;;1.13;;
63320;SDS011;49449;48.800;9.534;2022-07-10T14:04:21;2.15;;;1.27;;
63320;SDS011;49449;48.800;9.534;2022-07-10T14:06:49;1.00;;;1.00;;
63320;SDS011;49449;48.800;9.534;2022-07-10T14:09:17;1.88;;;0.70;;
63320;SDS011;49449;48.800;9.534;2022-07-10T14:11:46;2.80;;;0.90;;
63320;SDS011;49449;48.800;9.534;2022-07-10T14:14:14;1.70;;;1.10;;
63320;SDS011;49449;48.800;9.534;2022-07-10T14:16:42;1.40;;;1.27;;
63320;SDS011;49449;48.800;9.534;2022-07-10T14:19:11;1.85;;;1.15;;
63320;SDS011;49449;48.800;9.534;2022-07-10T14:21:39;2.00;;;1.05;;
63320;SDS011;49449;48.800;9.534;2022-07-10T14:24:07;2.42;;;0.82;;
63320;SDS011;49449;48.800;9.534;2022-07-10T14:26:35;1.23;;;1.15;;
63320;SDS011;49449;48.800;9.534;2022-07-10T14:29:03;1.38;;;1.20;;
63320;SDS011;49449;48.800;9.534;2022-07-10T14:31:31;2.30;;;1.10;;
63320;SDS011;49449;48.800;9.534;2022-07-10T14:33:59;2.28;;;1.00;;
63320;SDS011;49449;48.800;9.534;2022-07-10T14:36:28;1.30;;;0.90;;
63320;SDS011;49449;48.800;9.534;2022-07-10T14:38:59;0.75;;;0.68;;
63320;SDS011;49449;48.800;9.534;2022-07-10T14:43:54;1.98;;;0.80;;
63320;SDS011;49449;48.800;9.534;2022-07-10T14:46:22;1.98;;;0.88;;
63320;SDS011;49449;48.800;9.534;2022-07-10T14:48:50;1.23;;;0.70;;
63320;SDS011;49449;48.800;9.534;2022-07-10T14:51:18;1.50;;;0.82;;
63320;SDS011;49449;48.800;9.534;2022-07-10T14:53:51;1.17;;;0.80;;
63320;SDS011;49449;48.800;9.534;2022-07-10T14:56:20;2.15;;;1.27;;
63320;SDS011;49449;48.800;9.534;2022-07-10T14:58:48;2.90;;;1.13;;
63320;SDS011;49449;48.800;9.534;2022-07-10T15:01:36;2.30;;;1.15;;
63320;SDS011;49449;48.800;9.534;2022-07-10T15:04:05;1.90;;;1.00;;
63320;SDS011;49449;48.800;9.534;2022-07-10T15:06:32;1.40;;;1.10;;
63320;SDS011;49449;48.800;9.534;2022-07-10T15:09:02;0.73;;;0.73;;
63320;SDS011;49449;48.800;9.534;2022-07-10T15:11:30;2.28;;;0.75;;
63320;SDS011;49449;48.800;9.534;2022-07-10T15:14:00;0.82;;;0.80;;
63320;SDS011;49449;48.800;9.534;2022-07-10T15:16:30;2.28;;;1.00;;
63320;SDS011;49449;48.800;9.534;2022-07-10T15:18:59;1.40;;;1.17;;
63320;SDS011;49449;48.800;9.534;2022-07-10T15:21:27;0.68;;;0.68;;
63320;SDS011;49449;48.800;9.534;2022-07-10T15:23:55;1.35;;;0.70;;
63320;SDS011;49449;48.800;9.534;2022-07-10T15:26:25;1.75;;;0.77;;
63320;SDS011;49449;48.800;9.534;2022-07-10T15:28:52;2.92;;;1.10;;